createdAt,value
2019-05-11T00:01:16.796Z,93.30
2019-05-11T00:03:44.374Z,93.30
2019-05-11T00:06:12.728Z,93.20
2019-05-11T00:08:40.331Z,93.20
2019-05-11T00:11:07.905Z,93.30
2019-05-11T00:13:35.573Z,93.70
2019-05-11T00:16:03.177Z,93.60
2019-05-11T00:18:30.733Z,93.10
2019-05-11T00:20:58.339Z,93.10
2019-05-11T00:23:25.917Z,93.60
2019-05-11T00:25:53.484Z,93.20
2019-05-11T00:28:21.095Z,93.40
2019-05-11T00:30:48.664Z,93.30
2019-05-11T00:33:17.005Z,93.90
2019-05-11T00:35:44.610Z,93.80
2019-05-11T00:38:12.950Z,94.50
2019-05-11T00:40:40.602Z,94.40
2019-05-11T00:43:08.176Z,94.70
2019-05-11T00:45:35.749Z,94.90
2019-05-11T00:48:03.361Z,95.10
2019-05-11T00:50:39.181Z,95.20
2019-05-11T00:52:58.513Z,95.70
2019-05-11T00:55:26.110Z,95.40
2019-05-11T00:57:53.685Z,95.30
2019-05-11T01:00:22.030Z,95.30
2019-05-11T01:02:49.629Z,95.20
2019-05-11T01:05:17.974Z,95.30
2019-05-11T01:07:45.626Z,95.30
2019-05-11T01:10:23.628Z,95.10
2019-05-11T01:12:40.787Z,95.10
2019-05-11T01:15:09.486Z,95.30
2019-05-11T01:17:37.016Z,95.30
2019-05-11T01:20:07.637Z,95.40
2019-05-11T01:22:35.620Z,95.30
2019-05-11T01:25:03.197Z,95.60
2019-05-11T01:27:31.583Z,95.70
2019-05-11T01:29:59.157Z,95.70
2019-05-11T01:32:26.729Z,95.10
2019-05-11T01:34:54.301Z,94.80
2019-05-11T01:37:21.908Z,94.80
2019-05-11T01:39:49.485Z,94.90
2019-05-11T01:42:17.825Z,95.00
2019-05-11T01:44:45.425Z,94.90
2019-05-11T01:47:12.997Z,95.00
2019-05-11T01:49:41.729Z,94.90
2019-05-11T01:52:09.307Z,94.90
2019-05-11T01:54:36.879Z,94.90
2019-05-11T01:57:04.480Z,94.90
2019-05-11T01:59:32.061Z,94.90
2019-05-11T02:01:59.638Z,95.00
2019-05-11T02:04:27.239Z,95.00
2019-05-11T02:06:54.815Z,95.10
2019-05-11T02:09:23.195Z,95.00
2019-05-11T02:11:51.535Z,95.10
2019-05-11T02:14:19.108Z,95.10
2019-05-11T02:16:46.715Z,95.10
2019-05-11T02:19:14.304Z,95.10
2019-05-11T02:21:41.876Z,95.30
2019-05-11T02:24:09.484Z,95.00
2019-05-11T02:26:37.827Z,94.70
2019-05-11T02:29:05.405Z,94.70
2019-05-11T02:31:33.482Z,94.80
2019-05-11T02:34:01.051Z,94.90
2019-05-11T02:36:28.619Z,94.80
2019-05-11T02:38:56.214Z,94.80
2019-05-11T02:41:35.744Z,95.00
2019-05-11T02:43:51.418Z,95.00
2019-05-11T02:46:18.990Z,95.20
2019-05-11T02:48:46.558Z,95.30
2019-05-11T02:51:14.202Z,95.40
2019-05-11T02:53:42.311Z,95.40
2019-05-11T02:56:09.890Z,95.40
2019-05-11T02:58:37.785Z,95.50
2019-05-11T03:01:06.156Z,95.70
2019-05-11T03:03:33.731Z,95.70
2019-05-11T03:06:02.077Z,95.70
2019-05-11T03:08:30.033Z,95.70
2019-05-11T03:10:57.607Z,95.70
2019-05-11T03:13:25.180Z,95.60
2019-05-11T03:15:52.793Z,95.60
2019-05-11T03:18:20.370Z,95.70
2019-05-11T03:20:47.951Z,96.20
2019-05-11T03:23:15.555Z,96.00
2019-05-11T03:25:43.898Z,96.60
2019-05-11T03:28:11.469Z,96.60
2019-05-11T03:30:39.088Z,96.40
2019-05-11T03:33:06.661Z,96.60
2019-05-11T03:35:34.272Z,97.10
2019-05-11T03:38:01.848Z,96.80
2019-05-11T03:40:29.423Z,97.30
2019-05-11T03:42:57.021Z,97.10
2019-05-11T03:45:24.589Z,97.10
2019-05-11T03:47:52.196Z,97.20
2019-05-11T03:50:19.763Z,97.30
2019-05-11T03:52:47.330Z,97.50
2019-05-11T03:55:14.934Z,97.60
2019-05-11T03:57:42.782Z,97.50
2019-05-11T04:00:10.394Z,97.50
2019-05-11T04:02:37.964Z,97.60
2019-05-11T04:05:06.097Z,97.60
2019-05-11T04:07:33.729Z,97.70
2019-05-11T04:10:01.262Z,97.80
2019-05-11T04:12:34.532Z,97.80
2019-05-11T04:14:57.206Z,97.80
2019-05-11T04:17:25.544Z,97.90
2019-05-11T04:19:53.117Z,97.90
2019-05-11T04:22:20.717Z,97.90
2019-05-11T04:24:48.285Z,98.50
2019-05-11T04:27:19.525Z,98.20
2019-05-11T04:29:43.503Z,97.60
2019-05-11T04:32:11.071Z,97.60
2019-05-11T04:34:38.676Z,97.80
2019-05-11T04:37:06.247Z,97.30
2019-05-11T04:39:33.825Z,97.20
2019-05-11T04:42:02.200Z,97.40
2019-05-11T04:44:29.771Z,97.40
2019-05-11T04:46:58.115Z,96.70
2019-05-11T04:49:25.709Z,96.70
2019-05-11T04:51:53.299Z,96.70
2019-05-11T04:54:20.928Z,96.70
2019-05-11T04:56:48.480Z,96.70
2019-05-11T04:59:16.057Z,96.70
2019-05-11T05:01:43.671Z,96.70
2019-05-11T05:04:14.217Z,97.10
2019-05-11T05:06:39.104Z,96.60
2019-05-11T05:09:06.456Z,96.60
2019-05-11T05:11:36.963Z,97.10
2019-05-11T05:14:07.650Z,96.60
2019-05-11T05:16:31.488Z,96.70
2019-05-11T05:18:58.138Z,96.50
2019-05-11T05:21:25.720Z,96.50
2019-05-11T05:23:53.325Z,96.60
2019-05-11T05:26:20.901Z,96.80
2019-05-11T05:28:48.529Z,97.10
2019-05-11T05:31:16.104Z,96.80
2019-05-11T05:33:43.685Z,96.80
2019-05-11T05:36:11.292Z,96.90
2019-05-11T05:38:38.865Z,97.10
2019-05-11T05:41:06.449Z,97.10
2019-05-11T05:43:34.823Z,96.90
2019-05-11T05:46:02.394Z,96.90
2019-05-11T05:48:30.750Z,96.80
2019-05-11T05:50:58.382Z,96.80
2019-05-11T05:53:25.965Z,96.90
2019-05-11T05:55:53.547Z,96.90
2019-05-11T05:58:21.140Z,97.00
2019-05-11T06:00:48.710Z,97.10
2019-05-11T06:03:16.332Z,96.60
2019-05-11T06:05:44.674Z,96.40
2019-05-11T06:08:12.246Z,96.40
2019-05-11T06:10:39.869Z,96.40
2019-05-11T06:13:07.444Z,96.50
2019-05-11T06:15:35.018Z,96.50
2019-05-11T06:18:02.629Z,96.50
2019-05-11T06:20:30.971Z,96.40
2019-05-11T06:22:58.545Z,96.40
2019-05-11T06:25:26.176Z,96.50
2019-05-11T06:27:53.743Z,96.50
2019-05-11T06:30:21.318Z,96.50
2019-05-11T06:32:51.943Z,97.00
2019-05-11T06:35:22.404Z,96.80
2019-05-11T06:37:47.089Z,96.60
2019-05-11T06:40:14.697Z,96.70
2019-05-11T06:42:42.263Z,96.60
2019-05-11T06:45:09.942Z,96.70
2019-05-11T06:47:37.638Z,97.00
2019-05-11T06:50:05.094Z,96.60
2019-05-11T06:52:32.764Z,96.40
2019-05-11T06:55:00.342Z,96.40
2019-05-11T06:57:28.687Z,96.10
2019-05-11T06:59:56.280Z,96.10
2019-05-11T07:02:24.624Z,96.00
2019-05-11T07:04:52.806Z,96.00
2019-05-11T07:07:20.379Z,95.90
2019-05-11T07:09:47.955Z,96.40
2019-05-11T07:12:17.338Z,95.90
2019-05-11T07:14:44.706Z,95.80
2019-05-11T07:17:12.277Z,95.90
2019-05-11T07:19:40.383Z,96.00
2019-05-11T07:22:07.958Z,96.00
2019-05-11T07:24:35.591Z,95.90
2019-05-11T07:27:03.186Z,96.00
2019-05-11T07:29:30.762Z,96.00
2019-05-11T07:32:05.589Z,96.10
2019-05-11T07:34:27.775Z,96.10
2019-05-11T07:36:53.518Z,96.40
2019-05-11T07:39:21.716Z,96.00
2019-05-11T07:41:49.294Z,95.50
2019-05-11T07:44:18.970Z,95.50
2019-05-11T07:46:45.011Z,95.70
2019-05-11T07:49:12.592Z,95.70
2019-05-11T07:51:40.165Z,95.80
2019-05-11T07:54:08.482Z,95.80
2019-05-11T07:56:35.375Z,96.00
2019-05-11T07:59:02.956Z,95.60
2019-05-11T08:01:30.555Z,95.50
2019-05-11T08:03:58.737Z,95.60
2019-05-11T08:06:25.698Z,95.70
2019-05-11T08:08:53.319Z,96.00
2019-05-11T08:11:22.877Z,96.20
2019-05-11T08:13:50.453Z,96.40
2019-05-11T08:16:18.632Z,96.60
2019-05-11T08:18:48.016Z,96.80
2019-05-11T08:21:13.546Z,97.10
2019-05-11T08:23:41.167Z,97.50
2019-05-11T08:26:08.773Z,97.20
2019-05-11T08:28:38.089Z,97.20
2019-05-11T08:31:04.222Z,97.40
2019-05-11T08:33:31.797Z,97.60
2019-05-11T08:36:00.862Z,98.10
2019-05-11T08:38:28.661Z,98.10
2019-05-11T08:40:56.014Z,98.50
2019-05-11T08:43:24.386Z,99.00
2019-05-11T08:45:51.959Z,99.00
2019-05-11T08:48:20.341Z,99.20
2019-05-11T08:50:48.841Z,99.20
2019-05-11T08:53:17.710Z,99.40
2019-05-11T08:55:43.121Z,99.60
2019-05-11T08:58:11.467Z,99.90
2019-05-11T09:00:39.175Z,99.90
2019-05-11T09:03:08.570Z,99.90
2019-05-11T09:05:34.334Z,99.90
2019-05-11T09:08:01.905Z,99.90
2019-05-11T09:10:29.535Z,99.90
2019-05-11T09:12:59.055Z,99.90
2019-05-11T09:15:33.740Z,99.90
2019-05-11T09:17:52.367Z,99.90
2019-05-11T09:20:19.938Z,99.90
2019-05-11T09:22:48.541Z,99.90
2019-05-11T09:25:18.054Z,99.90
2019-05-11T09:27:43.615Z,99.90
2019-05-11T09:30:11.066Z,99.90
2019-05-11T09:32:38.720Z,99.90
2019-05-11T09:35:08.317Z,99.90
2019-05-11T09:37:34.609Z,99.90
2019-05-11T09:40:02.248Z,99.90
2019-05-11T09:42:29.824Z,99.90
2019-05-11T09:44:57.826Z,99.90
2019-05-11T09:47:27.780Z,99.90
2019-05-11T09:49:53.401Z,99.90
2019-05-11T09:52:21.475Z,99.90
2019-05-11T09:54:49.679Z,99.90
2019-05-11T09:57:18.522Z,99.90
2019-05-11T09:59:47.719Z,99.90
2019-05-11T10:02:13.246Z,99.90
2019-05-11T10:04:40.824Z,99.80
2019-05-11T10:07:08.990Z,99.30
2019-05-11T10:09:38.185Z,99.10
2019-05-11T10:12:03.583Z,98.90
2019-05-11T10:14:31.594Z,99.00
2019-05-11T10:16:59.168Z,99.30
2019-05-11T10:19:28.441Z,99.40
2019-05-11T10:21:54.402Z,99.20
2019-05-11T10:24:22.741Z,99.00
2019-05-11T10:26:50.314Z,99.00
2019-05-11T10:29:18.443Z,98.90
2019-05-11T10:31:47.903Z,99.00
2019-05-11T10:34:13.167Z,99.10
2019-05-11T10:36:40.782Z,99.40
2019-05-11T10:39:08.354Z,99.10
2019-05-11T10:41:35.934Z,99.30
2019-05-11T10:44:03.545Z,98.80
2019-05-11T10:46:31.118Z,98.60
2019-05-11T10:48:58.884Z,98.60
2019-05-11T10:51:28.569Z,98.80
2019-05-11T10:53:53.927Z,98.40
2019-05-11T10:56:22.588Z,98.40
2019-05-11T10:58:50.167Z,98.40
2019-05-11T11:01:18.304Z,98.40
2019-05-11T11:03:45.341Z,98.50
2019-05-11T11:06:12.910Z,98.60
2019-05-11T11:08:40.525Z,98.60
2019-05-11T11:11:08.281Z,98.60
2019-05-11T11:13:35.673Z,98.40
2019-05-11T11:16:03.306Z,98.20
2019-05-11T11:18:30.893Z,98.10
2019-05-11T11:20:59.219Z,97.70
2019-05-11T11:23:28.500Z,97.70
2019-05-11T11:25:54.426Z,97.60
2019-05-11T11:28:22.007Z,97.10
2019-05-11T11:30:49.628Z,97.20
2019-05-11T11:33:18.396Z,97.40
2019-05-11T11:35:44.779Z,97.60
2019-05-11T11:38:12.891Z,97.60
2019-05-11T11:40:42.924Z,97.90
2019-05-11T11:43:08.862Z,97.90
2019-05-11T11:45:38.063Z,98.10
2019-05-11T11:48:04.320Z,98.30
2019-05-11T11:50:31.898Z,98.30
2019-05-11T11:52:59.514Z,98.40
2019-05-11T11:55:42.296Z,98.40
2019-05-11T11:58:09.926Z,99.10
2019-05-11T12:00:39.097Z,98.70
2019-05-11T12:03:07.861Z,98.40
2019-05-11T12:05:33.327Z,98.20
2019-05-11T12:08:00.910Z,98.00
2019-05-11T12:10:28.834Z,97.80
2019-05-11T12:12:58.130Z,97.80
2019-05-11T12:15:24.447Z,97.60
2019-05-11T12:17:52.831Z,97.00
2019-05-11T12:20:21.560Z,96.20
2019-05-11T12:22:49.141Z,96.10
2019-05-11T12:25:18.502Z,96.40
2019-05-11T12:27:44.356Z,96.70
2019-05-11T12:30:11.935Z,96.50
2019-05-11T12:32:39.568Z,96.20
2019-05-11T12:35:08.656Z,96.00
2019-05-11T12:37:34.729Z,96.10
2019-05-11T12:40:02.367Z,96.20
2019-05-11T12:42:29.946Z,96.20
2019-05-11T12:44:57.854Z,96.20
2019-05-11T12:47:28.143Z,95.70
2019-05-11T12:49:53.563Z,95.70
2019-05-11T12:52:21.111Z,96.00
2019-05-11T12:54:48.714Z,95.90
2019-05-11T12:57:18.442Z,95.80
2019-05-11T12:59:43.947Z,95.70
2019-05-11T13:02:11.519Z,95.40
2019-05-11T13:04:39.104Z,95.20
2019-05-11T13:07:08.646Z,94.90
2019-05-11T13:09:34.326Z,95.00
2019-05-11T13:12:01.912Z,96.00
2019-05-11T13:14:29.540Z,94.90
2019-05-11T13:16:58.989Z,94.50
2019-05-11T13:19:24.704Z,94.20
2019-05-11T13:21:53.084Z,93.80
2019-05-11T13:24:20.676Z,93.80
2019-05-11T13:26:48.824Z,92.60
2019-05-11T13:29:18.116Z,92.00
2019-05-11T13:31:43.985Z,92.20
2019-05-11T13:34:11.668Z,92.60
2019-05-11T13:36:39.250Z,93.00
2019-05-11T13:39:08.854Z,92.80
2019-05-11T13:41:38.138Z,92.90
2019-05-11T13:44:03.410Z,93.50
2019-05-11T13:46:30.989Z,93.00
2019-05-11T13:48:58.587Z,93.20
2019-05-11T13:51:28.380Z,92.90
2019-05-11T13:53:54.575Z,91.50
2019-05-11T13:56:22.187Z,91.40
2019-05-11T13:58:49.793Z,91.00
2019-05-11T14:01:18.624Z,90.70
2019-05-11T14:03:45.511Z,90.30
2019-05-11T14:06:13.863Z,88.50
2019-05-11T14:08:41.528Z,88.80
2019-05-11T14:11:09.116Z,88.40
2019-05-11T14:13:38.654Z,87.90
2019-05-11T14:16:07.771Z,88.40
2019-05-11T14:18:33.216Z,88.30
2019-05-11T14:21:00.808Z,88.70
2019-05-11T14:23:31.377Z,90.00
2019-05-11T14:25:57.822Z,89.20
2019-05-11T14:28:25.442Z,89.20
2019-05-11T14:30:53.020Z,88.10
2019-05-11T14:33:20.612Z,87.70
2019-05-11T14:35:48.915Z,88.00
2019-05-11T14:38:18.546Z,88.20
2019-05-11T14:40:43.410Z,87.40
2019-05-11T14:43:11.492Z,86.70
2019-05-11T14:45:39.075Z,86.90
2019-05-11T14:48:22.229Z,86.20
2019-05-11T14:50:35.111Z,86.20
2019-05-11T14:53:02.694Z,85.10
2019-05-11T14:55:30.282Z,82.60
2019-05-11T14:57:57.906Z,81.50
2019-05-11T15:00:28.779Z,78.60
2019-05-11T15:02:53.892Z,78.10
2019-05-11T15:05:21.463Z,77.60
2019-05-11T15:07:52.038Z,73.30
2019-05-11T15:10:18.648Z,73.30
2019-05-11T15:12:44.273Z,74.00
2019-05-11T15:15:11.902Z,72.60
2019-05-11T15:17:39.686Z,73.70
2019-05-11T15:20:08.291Z,75.40
2019-05-11T15:22:35.206Z,77.10
2019-05-11T15:25:02.822Z,77.70
2019-05-11T15:27:31.180Z,78.20
2019-05-11T15:29:58.932Z,78.10
2019-05-11T15:32:28.531Z,78.40
2019-05-11T15:34:54.187Z,78.20
2019-05-11T15:37:21.896Z,79.30
2019-05-11T15:39:50.256Z,78.90
2019-05-11T15:42:19.958Z,78.90
2019-05-11T15:44:45.608Z,79.60
2019-05-11T15:47:13.189Z,80.30
2019-05-11T15:49:40.777Z,79.70
2019-05-11T15:52:09.202Z,78.80
2019-05-11T15:54:38.576Z,78.70
2019-05-11T15:57:04.386Z,78.70
2019-05-11T15:59:32.765Z,80.20
2019-05-11T16:02:01.119Z,78.50
2019-05-11T16:04:28.752Z,78.40
2019-05-11T16:06:57.597Z,77.00
2019-05-11T16:09:23.925Z,75.60
2019-05-11T16:11:51.543Z,74.70
2019-05-11T16:14:19.131Z,73.80
2019-05-11T16:16:48.058Z,73.50
2019-05-11T16:19:15.302Z,71.60
2019-05-11T16:21:42.328Z,70.60
2019-05-11T16:24:09.921Z,70.30
2019-05-11T16:26:38.272Z,70.80
2019-05-11T16:29:08.544Z,70.80
2019-05-11T16:31:33.491Z,70.90
2019-05-11T16:34:02.760Z,71.40
2019-05-11T16:36:28.726Z,72.50
2019-05-11T16:38:56.308Z,72.30
2019-05-11T16:41:24.657Z,72.00
2019-05-11T16:43:52.370Z,71.90
2019-05-11T16:46:19.913Z,70.60
2019-05-11T16:48:47.497Z,70.30
2019-05-11T16:51:15.099Z,70.60
2019-05-11T16:53:42.689Z,70.90
2019-05-11T16:56:10.348Z,71.80
2019-05-11T16:58:40.971Z,71.90
2019-05-11T17:01:05.512Z,71.70
2019-05-11T17:03:33.531Z,71.90
2019-05-11T17:06:01.115Z,71.90
2019-05-11T17:08:29.464Z,70.70
2019-05-11T17:10:59.900Z,70.60
2019-05-11T17:13:27.492Z,69.90
2019-05-11T17:15:58.064Z,68.00
2019-05-11T17:18:23.450Z,67.90
2019-05-11T17:20:51.031Z,65.50
2019-05-11T17:23:18.619Z,64.30
2019-05-11T17:25:48.282Z,64.20
2019-05-11T17:28:13.799Z,64.40
2019-05-11T17:30:41.993Z,62.80
2019-05-11T17:33:09.578Z,62.50
2019-05-11T17:35:37.151Z,62.30
2019-05-11T17:38:04.781Z,61.90
2019-05-11T17:40:33.461Z,60.80
2019-05-11T17:43:01.046Z,61.90
2019-05-11T17:45:28.743Z,62.30
2019-05-11T17:47:58.332Z,61.60
2019-05-11T17:50:24.677Z,61.60
2019-05-11T17:52:52.271Z,62.20
2019-05-11T17:55:19.854Z,61.80
2019-05-11T17:57:49.603Z,60.50
2019-05-11T18:00:15.596Z,61.10
2019-05-11T18:02:43.182Z,61.60
2019-05-11T18:05:10.765Z,62.30
2019-05-11T18:07:38.778Z,62.90
2019-05-11T18:10:07.957Z,63.70
2019-05-11T18:12:33.575Z,63.20
2019-05-11T18:15:01.150Z,63.30
2019-05-11T18:17:28.731Z,63.80
2019-05-11T18:20:06.587Z,65.00
2019-05-11T18:22:24.006Z,65.30
2019-05-11T18:24:51.580Z,66.10
2019-05-11T18:27:19.187Z,66.70
2019-05-11T18:29:48.549Z,67.30
2019-05-11T18:32:14.403Z,67.90
2019-05-11T18:34:41.981Z,68.40
2019-05-11T18:37:09.590Z,69.40
2019-05-11T18:39:37.934Z,69.20
2019-05-11T18:42:05.214Z,70.00
2019-05-11T18:44:33.564Z,70.40
2019-05-11T18:47:01.737Z,70.30
2019-05-11T18:49:29.320Z,70.90
2019-05-11T18:51:58.640Z,71.40
2019-05-11T18:54:27.421Z,71.50
2019-05-11T18:56:52.880Z,71.60
2019-05-11T18:59:20.460Z,71.80
2019-05-11T19:01:48.581Z,72.30
2019-05-11T19:04:15.657Z,72.80
2019-05-11T19:06:43.655Z,73.90
2019-05-11T19:09:11.236Z,73.60
2019-05-11T19:11:42.341Z,74.00
2019-05-11T19:14:08.650Z,75.60
2019-05-11T19:16:34.795Z,75.50
2019-05-11T19:19:02.382Z,76.20
2019-05-11T19:21:30.005Z,76.70
2019-05-11T19:23:58.148Z,77.30
2019-05-11T19:26:25.187Z,78.00
2019-05-11T19:28:52.820Z,78.60
2019-05-11T19:31:21.211Z,79.30
2019-05-11T19:33:48.980Z,80.00
2019-05-11T19:36:16.502Z,80.60
2019-05-11T19:38:44.087Z,81.20
2019-05-11T19:41:11.669Z,81.60
2019-05-11T19:43:39.316Z,82.00
2019-05-11T19:46:08.829Z,82.60
2019-05-11T19:48:34.491Z,83.10
2019-05-11T19:51:07.775Z,84.20
2019-05-11T19:53:29.704Z,83.70
2019-05-11T19:55:58.526Z,84.00
2019-05-11T19:58:25.689Z,84.00
2019-05-11T20:00:53.275Z,84.20
2019-05-11T20:03:20.979Z,84.50
2019-05-11T20:05:48.705Z,84.70
2019-05-11T20:08:18.254Z,85.00
2019-05-11T20:10:43.825Z,85.10
2019-05-11T20:13:11.425Z,85.30
2019-05-11T20:15:39.779Z,86.00
2019-05-11T20:18:08.006Z,85.90
2019-05-11T20:20:37.631Z,84.20
2019-05-11T20:23:03.370Z,84.10
2019-05-11T20:25:30.985Z,84.20
2019-05-11T20:27:58.687Z,84.60
2019-05-11T20:30:26.193Z,85.10
2019-05-11T20:32:54.572Z,86.00
2019-05-11T20:35:22.151Z,86.00
2019-05-11T20:37:49.756Z,86.30
2019-05-11T20:40:18.268Z,86.60
2019-05-11T20:42:44.970Z,86.90
2019-05-11T20:45:12.571Z,87.30
2019-05-11T20:47:40.144Z,87.50
2019-05-11T20:50:08.552Z,87.80
2019-05-11T20:52:36.125Z,87.80
2019-05-11T20:55:03.718Z,87.70
2019-05-11T20:57:31.357Z,88.00
2019-05-11T21:00:00.947Z,88.10
2019-05-11T21:02:28.649Z,88.10
2019-05-11T21:04:54.152Z,88.30
2019-05-11T21:07:21.741Z,88.50
2019-05-11T21:09:49.330Z,88.70
2019-05-11T21:12:18.475Z,88.80
2019-05-11T21:14:44.555Z,88.10
2019-05-11T21:17:12.908Z,88.10
2019-05-11T21:19:42.763Z,88.60
2019-05-11T21:22:09.008Z,88.40
2019-05-11T21:24:36.490Z,88.70
2019-05-11T21:27:04.125Z,88.80
2019-05-11T21:29:31.710Z,88.90
2019-05-11T21:31:59.385Z,89.00
2019-05-11T21:34:27.913Z,89.00
2019-05-11T21:36:54.512Z,89.10
2019-05-11T21:39:22.092Z,88.50
2019-05-11T21:41:50.859Z,88.70
2019-05-11T21:44:18.971Z,88.60
2019-05-11T21:46:46.805Z,87.70
2019-05-11T21:49:14.439Z,87.70
2019-05-11T21:51:42.027Z,87.20
2019-05-11T21:54:09.610Z,87.40
2019-05-11T21:56:40.814Z,88.20
2019-05-11T21:59:07.780Z,88.10
2019-05-11T22:01:33.202Z,87.60
2019-05-11T22:04:00.813Z,87.70
2019-05-11T22:06:30.550Z,88.00
2019-05-11T22:08:56.020Z,88.20
2019-05-11T22:11:23.599Z,88.40
2019-05-11T22:13:51.187Z,88.60
2019-05-11T22:16:18.806Z,88.90
2019-05-11T22:18:48.408Z,89.20
2019-05-11T22:21:13.975Z,89.50
2019-05-11T22:23:41.607Z,89.10
2019-05-11T22:26:09.194Z,88.60
2019-05-11T22:28:38.818Z,90.00
2019-05-11T22:31:04.415Z,88.50
2019-05-11T22:33:31.994Z,88.80
2019-05-11T22:35:59.578Z,87.90
2019-05-11T22:38:30.205Z,90.20
2019-05-11T22:40:58.121Z,89.70
2019-05-11T22:43:23.132Z,89.60
2019-05-11T22:45:50.795Z,89.30
2019-05-11T22:48:18.379Z,89.60
2019-05-11T22:50:48.101Z,89.90
2019-05-11T22:53:13.586Z,89.90
2019-05-11T22:55:41.165Z,90.00
2019-05-11T22:58:08.763Z,90.10
2019-05-11T23:00:38.116Z,90.20
2019-05-11T23:03:04.698Z,90.20
2019-05-11T23:05:32.328Z,90.30
2019-05-11T23:07:59.904Z,90.30
2019-05-11T23:10:28.139Z,90.40
2019-05-11T23:12:55.106Z,90.50
2019-05-11T23:15:22.677Z,90.60
2019-05-11T23:17:50.263Z,90.60
2019-05-11T23:20:17.869Z,90.70
2019-05-11T23:22:57.011Z,90.70
2019-05-11T23:25:18.469Z,90.50
2019-05-11T23:27:44.580Z,90.50
2019-05-11T23:30:12.162Z,90.60
2019-05-11T23:32:39.749Z,91.00
2019-05-11T23:35:08.453Z,90.80
2019-05-11T23:37:34.951Z,90.50
2019-05-11T23:40:02.533Z,90.50
2019-05-11T23:42:30.956Z,90.70
2019-05-11T23:44:58.688Z,90.90
2019-05-11T23:47:28.151Z,91.40
2019-05-11T23:49:54.474Z,91.40
2019-05-11T23:52:22.627Z,91.40
2019-05-11T23:54:50.211Z,91.50
2019-05-11T23:57:18.636Z,91.60
2019-05-11T23:59:47.686Z,91.70
